Bismarck, ND (58501)

6:28 PM CDT on March 22, 2017 (GMT -0500)
Apple Meadows | | Change Station

Elev 1732 ft 46.81 °N, 100.67 °W | Updated 4 seconds ago

Partly Cloudy
Partly Cloudy
42.3 °F
Feels Like 39 °F
N
6.0
Wind Variable Wind from SSE

Today
High -- | Low -- °F
--% Chance of Precip.
Yesterday
High -- | Low -- °F
Precip. -- in
Pressure 29.94 in
Visibility 10.0 miles
Clouds Clear
Windchill 39 °F
Dew Point 31 °F
Humidity 65%
Rainfall 0.00 in
Snow Depth Not available.
7:41 AM 7:58 PM
Waning Crescent, 28% visible
METAR KBIS 222252Z 16023G27KT 10SM CLR 09/M01 A2989 RMK AO2 PK WND 15027/2242 SLP138 T00891006
Pressure 29.94 in
Visibility 10.0 miles
Clouds Clear
Windchill 39 °F
Dew Point 31 °F
Humidity 65%
Rainfall 0.00 in
Snow Depth Not available.
7:41 AM 7:58 PM
Waning Crescent, 28% visible
METAR KBIS 222252Z 16023G27KT 10SM CLR 09/M01 A2989 RMK AO2 PK WND 15027/2242 SLP138 T00891006

Get Severe Weather Alerts

Thanks for signing up!

Be on the lookout for a verification email in your inbox.

You'll start receiving the daily forecast at 8 AM.

×

10-Day Weather Forecast

Almanac

Astronomy

Mar. 22, 2017 Rise Set
Actual Time
Civil Twilight
Nautical Twilight
Astronomical Twilight
Moon
Length of Visible Light
Length of Day
Tomorrow will be .
, % of the Moon is Illuminated

Today's Extremes

State Highs State Lows

Community

WunderPhotos

Upload Photos

1,962,540 photos uploaded!

WunderBlog® & News

Nearby

Air Quality

  Air Quality AQ Index Pollutant
Not available.

Snow Depth

Station Depth Elevation

Earthquake Activity

City Distance Mag. Time & Date
Minimum magnitude displayed is 2.5.

Earthquake Activity

City Distance Mag. Time & Date
Minimum magnitude displayed is 2.5.

Coastal Water Temperatures

Place Temperature

Stations

Nearby Weather Stations

Station Location Temp. Windchill Dew Point Humidity Wind Precip. Elev Updated Type
                   

Watches & Warnings

There are currently no watches in effect.